Terminal Aerodrome Forecast
Issued by NWS Atlanta, GA

Home | Current Version | Previous Version | Text Only | Print | Product List | Glossary On
Versions: 1 2 3 4 5 6 7 8 9 10 11 12 13 14 15 16 17 18 19 20 21 22 23 24 25 26 27 28 29 30 31 32 33 34 35 36 37 38 39 40 41
000
FTUS42 KFFC 282300
TAFATL
TAF
KATL 282325Z 2900/3006 21005KT P6SM FEW045 BKN250
     FM290900 22005KT 5SM BR FEW025 SCT040 BKN250
     FM291200 24005KT 5SM BR BKN008 BKN025
     FM291500 25008KT 5SM -SHRA BKN015
     FM291700 30009KT P6SM VCSH BKN025
     FM292100 33010G16KT P6SM SCT025 BKN040
     FM292300 33010KT P6SM SCT100=

USA.gov is the U.S. government's official web portal to all federal, state and local government web resources and services.